Olympia, Kentucky
Current Conditions -  °F | °C
As of 7:10 AM on Friday 21 Nov 2014 (Local Time) from KSYM Reporting Station
Clear Clear  
Wind Chill: 21°   Ceiling: Unl
Heat Index: 21°   Visibility: 10mi
Dew Point: 14°   Wind: 0mph
Humidity: 74%   Direction: NA
Pressure: 30.46"   Gusts: NA
Location:  38.1°N, 83.7°W
Report Text: KSYM 211210Z AUTO 00000KT 10SM CLR M06/M10 A3046 RMK AO2
Loading
Personal Weather Stations






























Interactive Weather Map New forecast layout! Learn more

10-Day Weather Forecast

Advertisements
Track Severe Weather on mobile